createdAt,value
2018-09-06T00:00:59.255Z,9.73
2018-09-06T00:03:27.359Z,8.20
2018-09-06T00:05:55.405Z,8.50
2018-09-06T00:08:24.036Z,8.97
2018-09-06T00:10:52.151Z,9.20
2018-09-06T00:13:20.348Z,9.90
2018-09-06T00:15:50.639Z,9.10
2018-09-06T00:18:18.664Z,9.70
2018-09-06T00:20:59.460Z,9.93
2018-09-06T00:23:27.591Z,9.57
2018-09-06T00:25:55.668Z,10.10
2018-09-06T00:28:23.712Z,10.90
2018-09-06T00:30:51.909Z,10.53
2018-09-06T00:33:20.119Z,9.70
2018-09-06T00:35:48.255Z,10.50
2018-09-06T00:38:16.479Z,10.65
2018-09-06T00:40:44.702Z,9.40
2018-09-06T00:43:12.780Z,10.00
2018-09-06T00:45:41.031Z,10.47
2018-09-06T00:48:09.063Z,9.97
2018-09-06T00:50:37.091Z,9.83
2018-09-06T00:53:05.320Z,8.93
2018-09-06T00:55:33.648Z,10.80
2018-09-06T00:58:01.708Z,9.87
2018-09-06T01:00:29.740Z,9.53
2018-09-06T01:02:57.780Z,10.07
2018-09-06T01:05:44.760Z,11.43
2018-09-06T01:08:12.844Z,10.77
2018-09-06T01:10:41.017Z,12.80
2018-09-06T01:13:09.036Z,10.23
2018-09-06T01:15:37.072Z,11.73
2018-09-06T01:18:05.360Z,12.37
2018-09-06T01:20:33.517Z,10.50
2018-09-06T01:23:01.563Z,11.30
2018-09-06T01:25:35.156Z,10.07
2018-09-06T01:28:03.433Z,10.33
2018-09-06T01:30:31.473Z,14.17
2018-09-06T01:32:59.992Z,10.07
2018-09-06T01:35:28.077Z,10.97
2018-09-06T01:37:56.120Z,11.03
2018-09-06T01:40:24.203Z,10.23
2018-09-06T01:42:52.252Z,11.23
2018-09-06T01:45:20.281Z,10.45
2018-09-06T01:47:48.296Z,9.90
2018-09-06T01:50:16.788Z,11.07
2018-09-06T01:52:45.051Z,10.70
2018-09-06T01:55:13.080Z,12.07
2018-09-06T01:57:41.111Z,13.33
2018-09-06T02:00:09.308Z,12.23
2018-09-06T02:02:37.343Z,15.40
2018-09-06T02:05:05.673Z,11.63
2018-09-06T02:07:40.251Z,11.53
2018-09-06T02:10:08.481Z,12.57
2018-09-06T02:12:36.525Z,12.10
2018-09-06T02:15:05.052Z,13.90
2018-09-06T02:17:33.431Z,14.20
2018-09-06T02:20:01.663Z,11.93
2018-09-06T02:22:29.683Z,12.97
2018-09-06T02:24:57.732Z,13.10
2018-09-06T02:27:25.776Z,14.53
2018-09-06T02:29:54.221Z,16.13
2018-09-06T02:32:22.305Z,13.50
2018-09-06T02:34:50.373Z,14.63
2018-09-06T02:37:18.428Z,15.27
2018-09-06T02:39:46.530Z,16.10
2018-09-06T02:42:14.561Z,14.67
2018-09-06T02:44:42.670Z,17.47
2018-09-06T02:47:10.692Z,13.87
2018-09-06T02:49:44.022Z,15.00
2018-09-06T02:52:12.134Z,15.67
2018-09-06T02:54:40.351Z,13.63
2018-09-06T02:57:08.555Z,14.03
2018-09-06T02:59:36.628Z,13.97
2018-09-06T03:02:04.731Z,16.77
2018-09-06T03:04:32.791Z,15.90
2018-09-06T03:07:00.819Z,16.40
2018-09-06T03:09:28.896Z,16.13
2018-09-06T03:11:59.923Z,15.47
2018-09-06T03:14:28.127Z,15.30
2018-09-06T03:16:56.495Z,14.77
2018-09-06T03:19:24.522Z,13.90
2018-09-06T03:21:52.594Z,17.53
2018-09-06T03:24:20.624Z,17.83
2018-09-06T03:26:48.826Z,15.33
2018-09-06T03:29:16.861Z,15.23
2018-09-06T03:31:44.892Z,15.53
2018-09-06T03:34:12.937Z,17.47
2018-09-06T03:36:41.063Z,14.70
2018-09-06T03:39:09.510Z,16.20
2018-09-06T03:41:38.056Z,16.70
2018-09-06T03:44:06.125Z,14.97
2018-09-06T03:46:34.430Z,13.73
2018-09-06T03:49:02.462Z,15.33
2018-09-06T03:51:30.493Z,19.67
2018-09-06T03:53:58.545Z,20.67
2018-09-06T03:56:26.580Z,17.35
2018-09-06T03:58:54.800Z,16.40
2018-09-06T04:01:22.834Z,16.73
2018-09-06T04:03:50.872Z,15.73
2018-09-06T04:06:18.898Z,16.57
2018-09-06T04:08:47.500Z,17.00
2018-09-06T04:11:15.544Z,18.05
2018-09-06T04:13:43.597Z,17.53
2018-09-06T04:16:11.642Z,15.68
2018-09-06T04:18:40.164Z,17.17
2018-09-06T04:21:08.204Z,16.03
2018-09-06T04:23:36.544Z,18.67
2018-09-06T04:26:20.952Z,17.63
2018-09-06T04:28:48.980Z,18.40
2018-09-06T04:31:17.016Z,18.00
2018-09-06T04:33:45.196Z,17.67
2018-09-06T04:36:13.292Z,17.23
2018-09-06T04:38:41.575Z,17.57
2018-09-06T04:41:09.751Z,17.60
2018-09-06T04:43:37.817Z,16.50
2018-09-06T04:46:05.940Z,18.07
2018-09-06T04:48:33.961Z,16.83
2018-09-06T04:51:01.991Z,16.83
2018-09-06T04:53:30.028Z,18.30
2018-09-06T04:55:58.061Z,17.73
2018-09-06T04:58:26.360Z,19.87
2018-09-06T05:00:54.336Z,21.47
2018-09-06T05:03:22.364Z,21.43
2018-09-06T05:05:50.444Z,20.97
2018-09-06T05:08:18.467Z,19.87
2018-09-06T05:10:46.648Z,18.53
2018-09-06T05:13:14.884Z,17.73
2018-09-06T05:15:42.924Z,19.63
2018-09-06T05:18:10.957Z,18.33
2018-09-06T05:20:38.987Z,22.53
2018-09-06T05:23:07.160Z,18.30
2018-09-06T05:25:35.384Z,22.50
2018-09-06T05:28:03.421Z,18.97
2018-09-06T05:30:31.553Z,19.93
2018-09-06T05:32:59.768Z,20.90
2018-09-06T05:35:27.990Z,21.03
2018-09-06T05:37:56.019Z,18.50
2018-09-06T05:40:24.048Z,20.20
2018-09-06T05:42:52.088Z,23.93
2018-09-06T05:45:20.112Z,19.40
2018-09-06T05:47:53.412Z,18.87
2018-09-06T05:50:21.435Z,18.67
2018-09-06T05:52:50.977Z,21.87
2018-09-06T05:55:19.148Z,20.70
2018-09-06T05:57:47.181Z,24.47
2018-09-06T06:00:20.628Z,23.10
2018-09-06T06:02:50.679Z,22.27
2018-09-06T06:05:18.874Z,20.63
2018-09-06T06:07:58.164Z,19.47
2018-09-06T06:10:26.184Z,19.37
2018-09-06T06:12:54.677Z,21.33
2018-09-06T06:15:22.942Z,20.33
2018-09-06T06:17:51.107Z,20.53
2018-09-06T06:20:19.383Z,19.97
2018-09-06T06:22:47.581Z,20.93
2018-09-06T06:25:15.700Z,24.40
2018-09-06T06:27:43.721Z,19.07
2018-09-06T06:30:11.740Z,18.65
2018-09-06T06:32:40.164Z,23.87
2018-09-06T06:35:08.204Z,19.57
2018-09-06T06:37:36.331Z,20.17
2018-09-06T06:40:05.020Z,21.97
2018-09-06T06:42:33.056Z,24.80
2018-09-06T06:45:01.117Z,26.57
2018-09-06T06:47:29.180Z,22.03
2018-09-06T06:49:57.308Z,24.90
2018-09-06T06:52:25.368Z,23.40
2018-09-06T06:54:53.388Z,23.77
2018-09-06T06:57:21.527Z,24.33
2018-09-06T06:59:49.508Z,27.43
2018-09-06T07:02:19.036Z,32.40
2018-09-06T07:04:47.069Z,31.97
2018-09-06T07:07:15.164Z,25.50
2018-09-06T07:09:43.267Z,30.57
2018-09-06T07:12:11.496Z,29.10
2018-09-06T07:14:39.529Z,28.83
2018-09-06T07:17:07.618Z,26.87
2018-09-06T07:19:35.681Z,31.07
2018-09-06T07:22:03.714Z,31.07
2018-09-06T07:24:31.989Z,31.13
2018-09-06T07:27:00.228Z,33.40
2018-09-06T07:29:28.280Z,28.73
2018-09-06T07:31:56.332Z,33.47
2018-09-06T07:34:24.412Z,31.83
2018-09-06T07:36:52.428Z,31.07
2018-09-06T07:39:20.572Z,34.03
2018-09-06T07:41:48.830Z,40.80
2018-09-06T07:44:16.902Z,30.73
2018-09-06T07:46:45.097Z,26.93
2018-09-06T07:49:13.108Z,29.40
2018-09-06T07:51:41.212Z,37.03
2018-09-06T07:54:09.275Z,32.45
2018-09-06T07:56:37.528Z,27.23
2018-09-06T07:59:06.340Z,27.80
2018-09-06T08:01:34.387Z,29.60
2018-09-06T08:04:02.511Z,31.63
2018-09-06T08:06:30.844Z,30.43
2018-09-06T08:08:58.948Z,29.47
2018-09-06T08:11:27.119Z,34.03
2018-09-06T08:13:55.136Z,32.90
2018-09-06T08:16:23.361Z,34.33
2018-09-06T08:18:51.418Z,36.23
2018-09-06T08:21:19.601Z,34.07
2018-09-06T08:23:47.624Z,38.07
2018-09-06T08:26:15.781Z,41.17
2018-09-06T08:28:43.800Z,39.83
2018-09-06T08:31:11.889Z,35.43
2018-09-06T08:33:39.893Z,38.80
2018-09-06T08:36:07.944Z,36.03
2018-09-06T08:38:35.964Z,38.83
2018-09-06T08:41:04.200Z,33.93
2018-09-06T08:43:32.218Z,31.70
2018-09-06T08:46:00.325Z,30.13
2018-09-06T08:48:28.431Z,33.63
2018-09-06T08:50:56.764Z,29.53
2018-09-06T08:53:24.784Z,31.43
2018-09-06T08:55:53.033Z,28.65
2018-09-06T08:58:21.108Z,27.22
2018-09-06T09:00:54.473Z,26.63
2018-09-06T09:03:22.662Z,25.73
2018-09-06T09:05:50.686Z,23.13
2018-09-06T09:08:19.105Z,23.07
2018-09-06T09:10:47.180Z,23.90
2018-09-06T09:13:15.214Z,23.62
2018-09-06T09:15:43.339Z,23.27
2018-09-06T09:18:11.388Z,25.67
2018-09-06T09:20:39.405Z,25.07
2018-09-06T09:23:07.524Z,24.00
2018-09-06T09:25:35.596Z,23.57
2018-09-06T09:28:03.636Z,23.57
2018-09-06T09:30:32.053Z,21.30
2018-09-06T09:33:00.064Z,23.13
2018-09-06T09:35:28.083Z,23.37
2018-09-06T09:37:56.259Z,20.23
2018-09-06T09:40:24.284Z,19.73
2018-09-06T09:42:52.398Z,21.30
2018-09-06T09:45:20.765Z,19.73
2018-09-06T09:47:48.883Z,22.80
2018-09-06T09:52:44.128Z,21.37
2018-09-06T09:55:12.448Z,20.75
2018-09-06T09:57:40.472Z,21.43
2018-09-06T10:00:08.693Z,22.60
2018-09-06T10:02:42.056Z,19.30
2018-09-06T10:05:15.408Z,23.17
2018-09-06T10:07:48.677Z,24.83
2018-09-06T10:10:16.700Z,24.47
2018-09-06T10:12:44.731Z,23.03
2018-09-06T10:15:12.752Z,22.27
2018-09-06T10:17:41.350Z,21.83
2018-09-06T10:20:09.472Z,21.40
2018-09-06T10:22:37.508Z,22.13
2018-09-06T10:25:06.298Z,22.98
2018-09-06T10:27:34.296Z,19.07
2018-09-06T10:30:02.512Z,20.70
2018-09-06T10:32:30.680Z,20.87
2018-09-06T10:34:58.785Z,23.83
2018-09-06T10:37:26.812Z,26.20
2018-09-06T10:39:54.944Z,23.13
2018-09-06T10:42:22.960Z,25.93
2018-09-06T10:44:51.092Z,23.87
2018-09-06T10:47:19.144Z,24.43
2018-09-06T10:49:47.208Z,23.40
2018-09-06T10:52:15.244Z,23.83
2018-09-06T10:54:43.256Z,22.60
2018-09-06T10:57:11.432Z,22.77
2018-09-06T10:59:39.456Z,25.40
2018-09-06T11:02:07.606Z,24.67
2018-09-06T11:04:35.638Z,25.97
2018-09-06T11:07:03.710Z,24.73
2018-09-06T11:09:31.785Z,21.20
2018-09-06T11:11:59.858Z,22.20
2018-09-06T11:14:27.879Z,22.43
2018-09-06T11:16:55.904Z,24.97
2018-09-06T11:19:24.168Z,23.23
2018-09-06T11:21:52.346Z,20.77
2018-09-06T11:24:20.212Z,21.57
2018-09-06T11:26:48.567Z,20.67
2018-09-06T11:29:16.665Z,20.15
2018-09-06T11:31:44.678Z,21.77
2018-09-06T11:34:12.713Z,19.00
2018-09-06T11:36:41.073Z,19.60
2018-09-06T11:39:09.932Z,23.73
2018-09-06T11:41:38.177Z,23.07
2018-09-06T11:46:52.918Z,23.73
2018-09-06T11:49:20.990Z,22.93
2018-09-06T11:51:49.261Z,27.17
2018-09-06T11:54:17.336Z,22.05
2018-09-06T11:56:45.380Z,24.90
2018-09-06T11:59:13.771Z,24.23
2018-09-06T12:01:41.909Z,20.57
2018-09-06T12:04:10.164Z,20.08
2018-09-06T12:06:38.601Z,25.97
2018-09-06T12:09:06.792Z,23.20
2018-09-06T12:11:35.235Z,22.57
2018-09-06T12:14:03.276Z,23.10
2018-09-06T12:16:31.320Z,24.53
2018-09-06T12:19:00.228Z,23.77
2018-09-06T12:21:28.256Z,25.17
2018-09-06T12:23:56.519Z,24.73
2018-09-06T12:26:24.512Z,26.77
2018-09-06T12:28:52.527Z,22.93
2018-09-06T12:31:20.560Z,24.40
2018-09-06T12:33:48.642Z,24.83
2018-09-06T12:36:16.677Z,25.97
2018-09-06T12:38:44.789Z,26.03
2018-09-06T12:41:12.880Z,27.22
2018-09-06T12:43:41.211Z,27.60
2018-09-06T12:46:09.283Z,27.70
2018-09-06T12:48:37.364Z,27.83
2018-09-06T12:51:05.416Z,30.43
2018-09-06T12:53:33.440Z,32.43
2018-09-06T12:56:01.472Z,29.63
2018-09-06T12:58:29.488Z,28.17
2018-09-06T13:00:57.744Z,31.73
2018-09-06T13:03:25.991Z,34.63
2018-09-06T13:05:53.994Z,32.37
2018-09-06T13:08:22.248Z,31.83
2018-09-06T13:10:50.305Z,33.43
2018-09-06T13:13:18.537Z,33.48
2018-09-06T13:15:46.564Z,30.53
2018-09-06T13:18:14.587Z,30.43
2018-09-06T13:20:42.604Z,33.83
2018-09-06T13:23:10.896Z,29.55
2018-09-06T13:25:38.976Z,33.00
2018-09-06T13:28:07.012Z,32.23
2018-09-06T13:30:35.034Z,33.30
2018-09-06T13:33:03.216Z,30.77
2018-09-06T13:35:31.256Z,33.80
2018-09-06T13:37:59.269Z,31.03
2018-09-06T13:40:27.307Z,29.73
2018-09-06T13:42:55.340Z,29.90
2018-09-06T13:45:23.356Z,28.87
2018-09-06T13:47:51.392Z,31.13
2018-09-06T13:50:19.420Z,28.00
2018-09-06T13:52:47.436Z,30.47
2018-09-06T13:55:15.467Z,29.33
2018-09-06T13:57:43.495Z,32.23
2018-09-06T14:00:11.513Z,31.12
2018-09-06T14:02:39.538Z,27.30
2018-09-06T14:05:07.860Z,27.90
2018-09-06T14:07:36.229Z,27.87
2018-09-06T14:10:04.980Z,29.92
2018-09-06T14:12:33.001Z,28.87
2018-09-06T14:15:01.032Z,28.10
2018-09-06T14:17:29.124Z,28.37
2018-09-06T14:19:57.159Z,26.10
2018-09-06T14:22:25.195Z,28.20
2018-09-06T14:24:53.222Z,28.93
2018-09-06T14:27:21.406Z,28.80
2018-09-06T14:29:49.426Z,29.00
2018-09-06T14:32:17.461Z,33.45
2018-09-06T14:34:45.492Z,32.37
2018-09-06T14:37:13.536Z,27.80
2018-09-06T14:39:41.548Z,26.37
2018-09-06T14:42:09.575Z,29.13
2018-09-06T14:44:37.599Z,26.93
2018-09-06T14:47:05.681Z,27.90
2018-09-06T14:49:33.721Z,29.00
2018-09-06T14:52:01.827Z,27.40
2018-09-06T14:54:29.881Z,30.37
2018-09-06T14:56:57.908Z,30.13
2018-09-06T14:59:25.961Z,25.03
2018-09-06T15:01:53.978Z,28.37
2018-09-06T15:04:22.005Z,26.97
2018-09-06T15:06:50.029Z,28.90
2018-09-06T15:09:18.060Z,28.33
2018-09-06T15:11:46.076Z,28.10
2018-09-06T15:14:14.096Z,27.10
2018-09-06T15:16:42.284Z,28.23
2018-09-06T15:19:10.360Z,26.97
2018-09-06T15:21:38.535Z,28.10
2018-09-06T15:24:05.771Z,29.40
2018-09-06T15:26:33.781Z,28.90
2018-09-06T15:29:01.801Z,27.17
2018-09-06T15:31:29.859Z,31.87
2018-09-06T15:33:57.995Z,27.00
2018-09-06T15:36:26.016Z,26.33
2018-09-06T15:38:54.165Z,29.37
2018-09-06T15:41:22.272Z,30.30
2018-09-06T15:43:50.293Z,31.00
2018-09-06T15:46:18.335Z,25.17
2018-09-06T15:48:48.412Z,27.43
2018-09-06T15:51:16.424Z,31.57
2018-09-06T15:53:44.448Z,30.87
2018-09-06T15:56:12.769Z,28.80
2018-09-06T15:58:40.801Z,29.33
2018-09-06T16:01:09.093Z,31.87
2018-09-06T16:03:37.140Z,35.43
2018-09-06T16:06:05.158Z,35.40
2018-09-06T16:08:33.180Z,35.33
2018-09-06T16:11:01.207Z,35.30
2018-09-06T16:13:29.259Z,42.97
2018-09-06T16:15:57.304Z,41.07
2018-09-06T16:18:25.398Z,36.03
2018-09-06T16:20:53.436Z,47.67
2018-09-06T16:23:21.453Z,40.63
2018-09-06T16:25:49.504Z,35.57
2018-09-06T16:28:17.697Z,37.97
2018-09-06T16:30:45.748Z,45.67
2018-09-06T16:33:13.780Z,36.97
2018-09-06T16:35:41.985Z,38.13
2018-09-06T16:38:09.979Z,35.47
2018-09-06T16:40:38.004Z,30.37
2018-09-06T16:43:06.136Z,34.50
2018-09-06T16:45:34.160Z,36.47
2018-09-06T16:48:02.195Z,34.47
2018-09-06T16:50:30.391Z,34.07
2018-09-06T16:52:58.416Z,28.47
2018-09-06T16:55:26.464Z,35.53
2018-09-06T16:57:54.492Z,30.37
2018-09-06T17:00:22.533Z,29.33
2018-09-06T17:02:50.568Z,36.30
2018-09-06T17:05:18.600Z,36.17
2018-09-06T17:07:46.640Z,34.70
2018-09-06T17:10:14.885Z,33.00
2018-09-06T17:12:42.912Z,27.45
2018-09-06T17:15:11.252Z,26.73
2018-09-06T17:17:39.319Z,23.27
2018-09-06T17:20:08.066Z,29.23
2018-09-06T17:22:36.155Z,30.87
2018-09-06T17:25:04.250Z,26.47
2018-09-06T17:27:32.309Z,25.90
2018-09-06T17:30:00.387Z,30.00
2018-09-06T17:32:28.457Z,38.53
2018-09-06T17:34:56.464Z,29.67
2018-09-06T17:37:24.490Z,34.37
2018-09-06T17:39:52.709Z,37.77
2018-09-06T17:42:20.888Z,33.07
2018-09-06T17:44:49.099Z,31.57
2018-09-06T17:47:17.131Z,34.83
2018-09-06T17:49:45.159Z,37.13
2018-09-06T17:52:13.192Z,31.30
2018-09-06T17:54:41.235Z,39.87
2018-09-06T17:57:09.486Z,40.93
2018-09-06T17:59:37.667Z,44.63
2018-09-06T18:02:05.980Z,34.07
2018-09-06T18:04:33.995Z,29.07
2018-09-06T18:07:02.025Z,40.43
2018-09-06T18:09:30.128Z,35.53
2018-09-06T18:11:58.156Z,41.83
2018-09-06T18:14:26.282Z,37.90
2018-09-06T18:16:54.292Z,35.27
2018-09-06T18:19:22.308Z,37.23
2018-09-06T18:21:50.332Z,33.50
2018-09-06T18:24:18.490Z,42.50
2018-09-06T18:26:46.509Z,41.33
2018-09-06T18:29:15.000Z,32.00
2018-09-06T18:31:43.079Z,35.03
2018-09-06T18:34:11.103Z,28.80
2018-09-06T18:36:39.115Z,31.30
2018-09-06T18:39:07.252Z,30.77
2018-09-06T18:41:35.371Z,35.00
2018-09-06T18:44:03.432Z,39.40
2018-09-06T18:46:32.129Z,34.57
2018-09-06T18:49:00.157Z,36.27
2018-09-06T18:51:28.260Z,33.30
2018-09-06T18:53:56.276Z,33.03
2018-09-06T18:56:24.416Z,24.03
2018-09-06T18:58:52.452Z,24.10
2018-09-06T19:01:20.492Z,23.80
2018-09-06T19:03:48.539Z,20.30
2018-09-06T19:06:16.555Z,24.45
2018-09-06T19:08:44.764Z,19.37
2018-09-06T19:11:12.784Z,24.02
2018-09-06T19:13:40.804Z,26.73
2018-09-06T19:16:09.255Z,24.83
2018-09-06T19:18:37.283Z,23.53
2018-09-06T19:21:06.341Z,28.07
2018-09-06T19:23:34.721Z,23.63
2018-09-06T19:26:02.813Z,25.13
2018-09-06T19:28:30.820Z,26.57
2018-09-06T19:30:58.929Z,27.27
2018-09-06T19:33:26.950Z,31.73
2018-09-06T19:35:55.067Z,28.87
2018-09-06T19:38:23.097Z,29.07
2018-09-06T19:40:51.120Z,26.60
2018-09-06T19:43:19.148Z,21.60
2018-09-06T19:45:47.168Z,20.43
2018-09-06T19:48:15.200Z,18.43
2018-09-06T19:50:43.244Z,20.07
2018-09-06T19:53:11.898Z,18.20
2018-09-06T19:55:39.929Z,17.73
2018-09-06T19:58:08.020Z,15.53
2018-09-06T20:00:36.145Z,16.83
2018-09-06T20:03:05.025Z,14.77
2018-09-06T20:05:33.048Z,15.63
2018-09-06T20:08:01.130Z,14.83
2018-09-06T20:10:29.272Z,15.30
2018-09-06T20:12:57.322Z,13.50
2018-09-06T20:15:25.379Z,12.50
2018-09-06T20:17:53.829Z,12.43
2018-09-06T20:20:22.008Z,13.53
2018-09-06T20:22:50.047Z,16.27
2018-09-06T20:25:18.339Z,13.37
2018-09-06T20:27:46.512Z,12.40
2018-09-06T20:30:14.797Z,11.20
2018-09-06T20:32:42.857Z,13.10
2018-09-06T20:35:11.240Z,12.37
2018-09-06T20:37:39.255Z,12.50
2018-09-06T20:40:07.291Z,11.43
2018-09-06T20:42:35.377Z,11.43
2018-09-06T20:45:03.828Z,14.17
2018-09-06T20:47:31.849Z,12.17
2018-09-06T20:49:59.903Z,12.65
2018-09-06T20:52:28.168Z,14.57
2018-09-06T20:54:56.408Z,10.30
2018-09-06T20:57:24.508Z,10.70
2018-09-06T20:59:52.560Z,15.27
2018-09-06T21:02:21.567Z,10.67
2018-09-06T21:04:50.057Z,14.77
2018-09-06T21:07:18.240Z,12.37
2018-09-06T21:09:46.527Z,13.53
2018-09-06T21:12:14.608Z,10.43
2018-09-06T21:14:42.635Z,12.20
2018-09-06T21:17:10.673Z,9.90
2018-09-06T21:19:38.853Z,10.10
2018-09-06T21:22:06.864Z,13.43
2018-09-06T21:24:34.889Z,10.87
2018-09-06T21:27:03.311Z,9.67
2018-09-06T21:29:31.332Z,9.60
2018-09-06T21:31:59.460Z,12.47
2018-09-06T21:34:27.619Z,12.90
2018-09-06T21:36:55.625Z,10.87
2018-09-06T21:39:24.300Z,12.57
2018-09-06T21:41:52.328Z,12.67
2018-09-06T21:44:20.436Z,13.00
2018-09-06T21:46:48.455Z,10.33
2018-09-06T21:49:16.587Z,11.28
2018-09-06T21:51:44.853Z,11.37
2018-09-06T21:54:13.062Z,9.70
2018-09-06T21:56:41.388Z,9.67
2018-09-06T21:59:09.399Z,10.40
2018-09-06T22:01:37.589Z,10.27
2018-09-06T22:04:07.947Z,12.77
2018-09-06T22:06:36.990Z,11.70
2018-09-06T22:09:07.948Z,11.33
2018-09-06T22:11:35.983Z,10.93
2018-09-06T22:14:04.004Z,11.13
2018-09-06T22:16:32.648Z,9.73
2018-09-06T22:19:01.099Z,13.77
2018-09-06T22:21:29.184Z,11.33
2018-09-06T22:23:57.247Z,13.80
2018-09-06T22:26:25.267Z,14.40
2018-09-06T22:28:53.289Z,10.63
2018-09-06T22:31:21.475Z,13.30
2018-09-06T22:33:49.544Z,10.93
2018-09-06T22:36:17.607Z,12.65
2018-09-06T22:38:45.676Z,11.10
2018-09-06T22:41:13.978Z,11.17
2018-09-06T22:43:42.120Z,11.50
2018-09-06T22:46:10.148Z,10.28
2018-09-06T22:48:38.188Z,12.37
2018-09-06T22:51:06.492Z,11.63
2018-09-06T22:53:34.892Z,12.10
2018-09-06T22:56:03.379Z,13.27
2018-09-06T22:58:31.439Z,12.17
2018-09-06T23:00:59.481Z,11.03
2018-09-06T23:03:32.977Z,13.70
2018-09-06T23:06:01.072Z,16.23
2018-09-06T23:08:29.291Z,12.73
2018-09-06T23:10:57.320Z,15.10
2018-09-06T23:13:25.440Z,14.10
2018-09-06T23:15:53.796Z,12.77
2018-09-06T23:18:21.836Z,15.63
2018-09-06T23:20:50.117Z,12.83
2018-09-06T23:23:18.152Z,15.07
2018-09-06T23:25:46.184Z,13.90
2018-09-06T23:28:14.462Z,14.33
2018-09-06T23:30:42.928Z,12.67
2018-09-06T23:33:11.091Z,17.45
2018-09-06T23:35:39.587Z,16.00
2018-09-06T23:38:07.691Z,17.47
2018-09-06T23:40:40.001Z,17.43
2018-09-06T23:43:08.496Z,15.20
2018-09-06T23:45:36.520Z,15.07
2018-09-06T23:48:04.864Z,16.77
2018-09-06T23:50:32.910Z,14.33
2018-09-06T23:53:01.012Z,13.60
2018-09-06T23:55:29.043Z,18.10
2018-09-06T23:57:57.083Z,15.13
